Time;durP1;ratioP1;P1;durP2;ratioP2;P2;SDS_P1;SDS_P2;PMS_P1;PMS_P2;Temp;Humidity;BMP_temperature;BMP_pressure;BME280_temperature;BME280_humidity;BME280_pressure;Samples;Min_cycle;Max_cycle;Signal;HPM_P1;HPM_P2
2021/07/25 00:02:07;;;;;;;10.45;7.60;;;;;;;19.50;60.00;96517.67;129699;1092;32596;-94
2021/07/25 00:04:38;;;;;;;9.40;7.48;;;;;;;19.42;60.15;96529.32;128227;1092;27582;-95
2021/07/25 00:07:10;;;;;;;10.70;7.20;;;;;;;19.37;60.27;96529.56;128162;1092;30936;-91
2021/07/25 00:09:41;;;;;;;10.78;6.98;;;;;;;19.34;60.29;96529.45;128053;1093;29563;-91
2021/07/25 00:12:13;;;;;;;10.73;7.40;;;;;;;19.31;60.49;96532.82;128084;1091;28278;-93
2021/07/25 00:14:44;;;;;;;10.90;7.45;;;;;;;19.33;60.69;96535.95;128120;1093;26727;-91
2021/07/25 00:17:16;;;;;;;11.73;7.88;;;;;;;19.26;60.63;96531.12;128088;1092;30089;-92
2021/07/25 00:19:47;;;;;;;10.38;7.48;;;;;;;19.25;60.62;96529.55;128108;1092;29868;-92
2021/07/25 00:22:19;;;;;;;11.23;7.70;;;;;;;19.15;60.51;96535.39;128116;1091;24311;-91
2021/07/25 00:24:59;;;;;;;12.18;7.78;;;;;;;19.12;61.04;96536.83;128084;1093;25734;-91
2021/07/25 00:27:30;;;;;;;9.53;7.00;;;;;;;19.07;60.88;96538.95;128065;1091;26854;-90
2021/07/25 00:30:02;;;;;;;10.15;7.55;;;;;;;19.07;60.97;96533.58;127935;1093;136573;-91
2021/07/25 00:32:34;;;;;;;10.63;7.05;;;;;;;19.11;60.96;96529.09;128091;1092;28555;-90
2021/07/25 00:35:06;;;;;;;10.15;7.15;;;;;;;19.10;60.99;96530.22;128039;1092;24530;-92
2021/07/25 00:37:42;;;;;;;9.58;6.95;;;;;;;19.04;60.95;96529.66;128150;1093;24613;-92
2021/07/25 00:40:21;;;;;;;11.30;7.70;;;;;;;19.01;61.05;96522.28;128078;1091;31907;-92
2021/07/25 00:42:52;;;;;;;10.13;7.03;;;;;;;18.99;61.03;96530.65;128072;1092;32311;-92
2021/07/25 00:45:24;;;;;;;10.40;7.15;;;;;;;19.00;60.98;96520.69;128106;1091;28491;-91
2021/07/25 00:47:55;;;;;;;10.80;7.30;;;;;;;18.89;61.02;96523.05;128045;1091;33803;-90
2021/07/25 00:50:27;;;;;;;10.05;7.20;;;;;;;18.86;61.19;96523.72;128027;1093;27933;-89
2021/07/25 00:52:58;;;;;;;9.60;6.90;;;;;;;18.82;61.15;96506.67;128074;1091;35346;-91
2021/07/25 00:55:30;;;;;;;10.63;7.30;;;;;;;18.73;61.24;96508.69;128106;1093;33532;-92
2021/07/25 00:58:02;;;;;;;9.73;7.00;;;;;;;18.67;61.19;96515.38;128075;1091;29096;-93
2021/07/25 01:00:34;;;;;;;11.93;7.85;;;;;;;18.67;61.38;96501.95;128076;1093;26850;-90
2021/07/25 01:03:16;;;;;;;12.68;7.50;;;;;;;18.71;61.45;96502.84;128069;1093;31511;-90
2021/07/25 01:05:58;;;;;;;10.65;7.43;;;;;;;18.68;61.17;96500.83;128082;1093;35963;-91
2021/07/25 01:08:40;;;;;;;10.40;6.83;;;;;;;18.66;61.21;96495.80;128214;1093;26672;-91
2021/07/25 01:11:13;;;;;;;11.13;7.10;;;;;;;18.58;61.22;96502.03;128145;1092;29901;-92
2021/07/25 01:13:51;;;;;;;12.25;7.70;;;;;;;18.58;61.55;96501.22;128092;1093;24731;-91
2021/07/25 01:16:23;;;;;;;12.48;7.40;;;;;;;18.56;61.27;96498.87;128064;1092;27509;-91
2021/07/25 01:18:55;;;;;;;10.65;7.60;;;;;;;18.49;61.34;96503.22;128106;1091;25798;-91
2021/07/25 01:21:26;;;;;;;10.48;7.20;;;;;;;18.46;61.57;96503.89;128070;1091;24914;-89
2021/07/25 01:23:59;;;;;;;11.98;7.38;;;;;;;18.46;61.61;96501.99;128109;1093;24538;-91
2021/07/25 01:26:35;;;;;;;9.93;6.93;;;;;;;18.47;62.07;96494.72;128080;1092;26765;-90
2021/07/25 01:29:07;;;;;;;10.40;7.20;;;;;;;18.49;61.75;96487.12;128117;1091;26205;-91
2021/07/25 01:31:42;;;;;;;8.90;6.65;;;;;;;18.43;61.88;96489.21;128158;1092;24738;-90
2021/07/25 01:34:14;;;;;;;11.00;7.50;;;;;;;18.46;61.67;96493.16;128070;1091;28163;-90
2021/07/25 01:36:46;;;;;;;12.28;7.70;;;;;;;18.47;61.84;96494.72;128067;1092;29676;-92
2021/07/25 01:39:18;;;;;;;11.10;6.75;;;;;;;18.46;61.77;96487.78;128065;1093;29033;-90
2021/07/25 01:41:50;;;;;;;9.33;6.93;;;;;;;18.47;61.51;96492.03;128102;1092;25655;-91
2021/07/25 01:44:21;;;;;;;9.28;6.80;;;;;;;18.47;61.33;96494.72;128020;1093;27984;-90
2021/07/25 01:46:53;;;;;;;12.88;7.43;;;;;;;18.45;61.24;96491.59;128054;1092;32577;-92
2021/07/25 01:49:24;;;;;;;12.90;7.38;;;;;;;18.42;61.09;96494.91;128048;1093;26565;-91
2021/07/25 01:51:58;;;;;;;8.60;6.70;;;;;;;18.42;61.00;96498.38;128133;1091;30319;-90
2021/07/25 01:54:29;;;;;;;9.58;6.55;;;;;;;18.51;60.82;96495.63;128045;1092;37174;-90
2021/07/25 01:57:01;;;;;;;12.38;6.85;;;;;;;18.60;60.41;96496.33;128183;1093;27945;-93
2021/07/25 01:59:32;;;;;;;8.50;6.23;;;;;;;18.66;60.51;96498.48;128085;1093;29192;-92
2021/07/25 02:02:04;;;;;;;11.38;6.88;;;;;;;18.69;60.31;96497.81;128103;1092;26380;-90
2021/07/25 02:04:36;;;;;;;10.33;6.35;;;;;;;18.71;60.05;96497.47;128019;1092;27044;-92
2021/07/25 02:07:08;;;;;;;11.75;6.78;;;;;;;18.74;59.98;96502.20;128183;1093;27092;-92
2021/07/25 02:09:40;;;;;;;9.75;6.78;;;;;;;18.72;59.75;96504.44;128176;1092;25130;-93
2021/07/25 02:12:13;;;;;;;8.73;6.65;;;;;;;18.69;59.70;96497.81;128044;1091;83493;-93
2021/07/25 02:14:44;;;;;;;11.00;7.55;;;;;;;18.73;59.75;96503.32;128076;1092;29565;-92
2021/07/25 02:17:16;;;;;;;10.10;6.95;;;;;;;18.67;59.41;96504.63;128092;1092;26186;-92
2021/07/25 02:19:48;;;;;;;9.10;6.48;;;;;;;18.53;59.46;96499.53;128063;1092;29655;-90
2021/07/25 02:22:19;;;;;;;10.45;6.93;;;;;;;18.50;59.77;96505.58;128095;1093;27708;-91
2021/07/25 02:24:51;;;;;;;9.70;7.33;;;;;;;18.53;60.13;96509.49;128062;1092;26180;-92
2021/07/25 02:27:22;;;;;;;9.28;6.83;;;;;;;18.52;60.03;96507.92;128052;1093;25854;-92
2021/07/25 02:29:53;;;;;;;9.93;7.28;;;;;;;18.48;60.01;96501.66;128037;1093;27171;-91
2021/07/25 02:32:25;;;;;;;11.93;7.43;;;;;;;18.42;60.21;96500.28;128042;1092;28980;-93
2021/07/25 02:34:56;;;;;;;10.50;7.88;;;;;;;18.32;60.81;96499.59;128020;1093;33583;-91
2021/07/25 02:37:27;;;;;;;9.98;8.05;;;;;;;18.29;60.84;96504.82;128077;1093;30404;-93
2021/07/25 02:39:59;;;;;;;10.85;7.78;;;;;;;18.23;61.13;96503.47;128058;1092;40781;-93
2021/07/25 02:42:30;;;;;;;11.95;7.73;;;;;;;18.23;61.35;96500.78;128046;1093;30145;-93
2021/07/25 02:45:02;;;;;;;9.68;7.53;;;;;;;18.25;61.30;96499.33;128083;1092;27757;-92
2021/07/25 02:47:34;;;;;;;10.30;7.20;;;;;;;18.22;61.39;96486.58;128100;1091;31406;-92
2021/07/25 02:50:06;;;;;;;9.25;7.03;;;;;;;18.16;61.37;96490.59;128071;1092;35826;-91
2021/07/25 02:52:38;;;;;;;11.10;7.23;;;;;;;18.16;61.70;96490.59;128181;1091;37587;-93
2021/07/25 02:55:11;;;;;;;11.70;7.00;;;;;;;18.06;61.67;96497.14;128105;1093;76169;-91
2021/07/25 02:57:42;;;;;;;11.93;7.63;;;;;;;17.93;62.02;96495.52;128070;1091;33633;-92
2021/07/25 03:00:16;;;;;;;10.83;7.73;;;;;;;17.79;62.28;96492.31;128066;1092;29027;-91
2021/07/25 03:02:47;;;;;;;11.20;7.53;;;;;;;17.70;62.47;96483.53;128068;1092;26210;-92
2021/07/25 03:05:19;;;;;;;10.48;7.48;;;;;;;17.71;62.40;96491.25;128020;1092;30464;-91
2021/07/25 03:07:51;;;;;;;12.08;7.58;;;;;;;17.82;62.50;96497.02;128060;1091;29582;-91
2021/07/25 03:10:22;;;;;;;10.60;7.10;;;;;;;17.77;62.50;96500.69;128059;1093;31512;-92
2021/07/25 03:12:53;;;;;;;10.20;7.18;;;;;;;17.75;62.85;96502.91;128101;1092;28459;-92
2021/07/25 03:15:25;;;;;;;9.35;6.48;;;;;;;17.72;62.47;96500.08;128041;1093;33007;-92
2021/07/25 03:17:56;;;;;;;10.15;6.68;;;;;;;17.76;62.72;96499.13;128100;1093;36358;-94
2021/07/25 03:20:28;;;;;;;11.40;7.35;;;;;;;17.71;62.71;96506.55;128118;1092;46681;-93
2021/07/25 03:22:59;;;;;;;11.68;7.45;;;;;;;17.69;62.68;96496.16;128156;1092;31470;-94
2021/07/25 03:25:31;;;;;;;9.38;7.08;;;;;;;17.66;62.83;96496.78;128185;1093;32340;-91
2021/07/25 03:28:03;;;;;;;11.43;7.10;;;;;;;17.70;62.58;96494.27;128124;1092;27150;-91
2021/07/25 03:30:35;;;;;;;11.87;7.63;;;;;;;17.76;62.54;96492.97;128061;1092;32146;-92
2021/07/25 03:33:06;;;;;;;11.98;7.43;;;;;;;17.78;62.37;96488.06;128109;1093;30821;-94
2021/07/25 03:35:38;;;;;;;9.55;6.75;;;;;;;17.82;62.24;96493.55;128156;1093;36070;-93
2021/07/25 03:38:10;;;;;;;10.70;6.93;;;;;;;17.89;62.00;96507.23;128112;1092;63848;-93
2021/07/25 03:40:43;;;;;;;10.05;7.08;;;;;;;17.95;62.08;96500.55;128114;1093;33788;-92
2021/07/25 03:43:16;;;;;;;11.47;7.17;;;;;;;17.94;62.36;96507.81;128080;1092;32187;-93
2021/07/25 03:45:48;;;;;;;10.70;7.30;;;;;;;17.88;62.44;96505.67;128104;1092;31684;-92
2021/07/25 03:48:21;;;;;;;11.10;7.93;;;;;;;17.90;62.45;96506.13;128138;1093;31135;-93
2021/07/25 03:50:53;;;;;;;10.05;7.60;;;;;;;17.98;62.48;96507.94;128159;1093;31741;-93
2021/07/25 03:53:24;;;;;;;12.33;8.08;;;;;;;18.01;62.64;96501.91;128111;1093;32327;-93
2021/07/25 03:55:56;;;;;;;10.65;7.28;;;;;;;18.04;62.46;96498.59;128153;1091;35270;-92
2021/07/25 03:58:27;;;;;;;10.18;7.40;;;;;;;18.08;62.64;96507.55;128103;1093;39966;-93
2021/07/25 04:00:58;;;;;;;10.58;7.18;;;;;;;18.10;62.54;96510.68;128050;1092;30977;-92
2021/07/25 04:03:30;;;;;;;10.20;7.70;;;;;;;18.17;62.60;96516.31;128147;1093;26480;-92
2021/07/25 04:06:01;;;;;;;9.80;7.10;;;;;;;18.22;62.54;96510.73;128101;1093;38653;-92
2021/07/25 04:08:32;;;;;;;8.73;7.03;;;;;;;18.31;62.55;96513.35;128131;1092;31437;-93
2021/07/25 04:11:04;;;;;;;11.58;7.55;;;;;;;18.43;62.49;96512.59;128161;1092;29261;-93
2021/07/25 04:13:36;;;;;;;10.13;7.23;;;;;;;18.57;62.29;96516.55;128118;1093;42693;-93
2021/07/25 04:16:07;;;;;;;9.45;7.40;;;;;;;18.71;62.32;96518.17;128095;1093;30479;-92
2021/07/25 04:18:39;;;;;;;12.53;7.00;;;;;;;18.85;62.06;96527.48;128174;1092;31198;-92
2021/07/25 04:21:10;;;;;;;10.78;7.45;;;;;;;18.95;61.98;96531.66;128122;1093;27385;-92
2021/07/25 04:23:43;;;;;;;8.75;6.40;;;;;;;19.00;61.61;96534.12;128083;1091;30863;-94
2021/07/25 04:26:15;;;;;;;11.70;7.18;;;;;;;19.06;61.45;96526.64;128096;1093;31355;-92
2021/07/25 04:28:47;;;;;;;9.70;7.33;;;;;;;19.09;61.42;96534.03;128129;1093;42260;-93
2021/07/25 04:31:21;;;;;;;10.48;7.05;;;;;;;19.14;61.18;96531.11;128119;1092;30407;-92
2021/07/25 04:33:54;;;;;;;9.88;6.80;;;;;;;19.11;60.95;96529.88;128139;1092;28686;-92
2021/07/25 04:36:27;;;;;;;8.55;6.60;;;;;;;19.09;60.96;96529.44;128092;1091;29585;-93
2021/07/25 04:39:00;;;;;;;11.25;7.18;;;;;;;19.06;61.05;96523.95;128121;1091;32959;-93
2021/07/25 04:41:35;;;;;;;10.83;7.00;;;;;;;18.98;61.04;96521.02;128199;1092;37874;-93
2021/07/25 04:44:16;;;;;;;10.85;7.10;;;;;;;18.90;61.25;96521.92;128363;1092;32773;-92
2021/07/25 04:46:52;;;;;;;11.18;7.13;;;;;;;18.92;61.48;96514.31;128148;1091;25980;-93
2021/07/25 04:49:32;;;;;;;8.38;7.05;;;;;;;19.01;61.27;96518.81;128254;1093;30550;-92
2021/07/25 04:52:07;;;;;;;10.43;7.08;;;;;;;19.07;61.18;96517.46;128249;1093;30848;-92
2021/07/25 04:54:44;;;;;;;9.48;6.83;;;;;;;19.01;61.07;96505.38;128198;1091;31776;-94
2021/07/25 04:57:18;;;;;;;10.88;7.70;;;;;;;19.03;61.21;96503.14;128144;1092;33370;-93
2021/07/25 04:59:54;;;;;;;10.83;7.93;;;;;;;19.13;61.26;96502.67;128106;1093;36111;-94
2021/07/25 05:02:27;;;;;;;10.73;7.33;;;;;;;19.12;61.30;96503.80;128095;1091;33650;-93
2021/07/25 05:05:00;;;;;;;10.23;6.93;;;;;;;19.08;61.51;96502.91;128065;1093;28223;-93
2021/07/25 05:07:36;;;;;;;10.40;7.25;;;;;;;19.03;61.53;96503.92;128091;1092;30899;-94
2021/07/25 05:10:14;;;;;;;12.35;7.53;;;;;;;19.00;61.77;96507.25;128236;1093;39241;-93
2021/07/25 05:12:50;;;;;;;10.63;7.48;;;;;;;19.13;62.62;96510.73;128097;1092;34950;-93
2021/07/25 05:15:28;;;;;;;10.80;7.88;;;;;;;20.18;63.20;96505.45;128112;1091;45347;-92
2021/07/25 05:18:07;;;;;;;9.53;6.73;;;;;;;22.23;62.34;96492.67;128195;1092;29920;-93
2021/07/25 05:20:44;;;;;;;10.85;6.98;;;;;;;24.65;59.26;96493.65;128077;1092;39273;-93
2021/07/25 05:23:22;;;;;;;8.13;5.73;;;;;;;26.95;56.32;96492.64;128144;1092;37864;-94
2021/07/25 05:25:56;;;;;;;9.45;6.53;;;;;;;27.73;51.99;96491.84;128121;1093;36223;-95
2021/07/25 05:28:28;;;;;;;8.93;6.28;;;;;;;28.75;50.99;96502.77;128112;1093;39096;-94
2021/07/25 05:31:16;;;;;;;7.93;6.10;;;;;;;30.44;50.47;96501.61;128094;1093;36470;-95
2021/07/25 05:33:48;;;;;;;7.25;5.90;;;;;;;31.95;46.07;96495.34;129631;1093;36919;-95
2021/07/25 05:36:19;;;;;;;7.55;6.18;;;;;;;32.79;44.97;96497.52;129782;1093;33645;-96
2021/07/25 05:38:51;;;;;;;7.93;5.70;;;;;;;33.94;43.65;96499.08;128694;1093;33844;-95
2021/07/25 05:41:22;;;;;;;6.30;5.38;;;;;;;33.96;41.35;96496.66;128206;1092;29060;-95
2021/07/25 05:43:54;;;;;;;8.05;5.88;;;;;;;34.31;41.35;96491.36;128045;1092;42073;-93
2021/07/25 05:46:26;;;;;;;9.18;5.73;;;;;;;34.78;39.37;96484.07;128116;1091;27385;-96
2021/07/25 05:48:57;;;;;;;6.75;5.23;;;;;;;34.60;37.82;96483.83;128048;1091;36077;-93
2021/07/25 05:51:29;;;;;;;7.80;5.58;;;;;;;34.24;37.83;96482.11;128063;1092;34590;-96
2021/07/25 05:54:00;;;;;;;7.30;5.40;;;;;;;34.23;37.70;96483.32;128136;1091;64084;-95
2021/07/25 05:56:32;;;;;;;5.78;4.95;;;;;;;34.76;37.44;96477.44;128140;1093;38141;-96
2021/07/25 05:59:03;;;;;;;6.05;5.45;;;;;;;35.88;37.43;96470.65;128195;1092;39249;-94
2021/07/25 06:01:35;;;;;;;6.08;5.48;;;;;;;36.95;36.24;96472.97;128115;1091;34373;-94
2021/07/25 06:04:07;;;;;;;5.85;4.85;;;;;;;36.60;34.58;96475.13;128183;1092;40167;-95
2021/07/25 06:06:38;;;;;;;5.63;4.57;;;;;;;36.84;35.05;96480.91;128264;1091;30954;-96
2021/07/25 06:09:10;;;;;;;5.75;5.03;;;;;;;37.83;34.22;96489.13;128221;1092;37252;-96
2021/07/25 06:11:43;;;;;;;6.20;5.20;;;;;;;39.27;33.25;96477.35;128318;1093;32658;-96
2021/07/25 06:14:15;;;;;;;6.13;4.90;;;;;;;40.00;31.92;96485.20;128139;1091;40659;-94
2021/07/25 06:16:46;;;;;;;6.10;5.40;;;;;;;40.81;30.81;96479.23;128104;1092;37230;-96
2021/07/25 06:19:18;;;;;;;5.53;4.80;;;;;;;41.55;30.46;96484.62;128142;1091;31417;-95
2021/07/25 06:21:51;;;;;;;6.25;4.75;;;;;;;41.97;29.30;96483.34;128153;1093;36003;-95
2021/07/25 06:24:26;;;;;;;6.15;4.68;;;;;;;41.97;28.44;96486.13;128312;1091;46360;-96
2021/07/25 06:26:58;;;;;;;5.30;4.73;;;;;;;41.07;27.75;96487.73;128103;1092;35626;-94
2021/07/25 06:29:49;;;;;;;6.30;5.23;;;;;;;39.80;27.79;96485.02;124167;1092;5550343;-96
2021/07/25 06:32:24;;;;;;;4.85;4.40;;;;;;;38.89;28.53;96487.09;117910;1093;5549028;-94
2021/07/25 06:34:56;;;;;;;5.18;4.65;;;;;;;38.13;28.87;96487.41;122378;1093;5382015;-95
2021/07/25 06:37:28;;;;;;;8.80;4.65;;;;;;;37.22;29.43;96488.09;127193;1092;274864;-96
2021/07/25 06:40:00;;;;;;;6.15;4.85;;;;;;;36.42;30.53;96484.06;127845;1092;177187;-96
2021/07/25 06:42:36;;;;;;;6.10;5.08;;;;;;;36.48;30.52;96493.31;127775;1093;182512;-96
2021/07/25 06:45:09;;;;;;;5.00;4.33;;;;;;;37.24;30.89;96488.40;127167;1092;325846;-96
2021/07/25 06:47:42;;;;;;;5.30;4.63;;;;;;;38.23;30.52;96486.20;125984;1091;1908954;-96
2021/07/25 06:50:35;;;;;;;6.73;4.98;;;;;;;38.62;29.25;96489.95;127812;1087;210016;-96
2021/07/25 06:53:07;;;;;;;7.70;4.98;;;;;;;39.53;29.64;96483.22;127800;1093;258051;-96
2021/07/25 06:55:40;;;;;;;5.55;4.65;;;;;;;39.76;28.27;96487.98;125663;1093;1942552;-96
2021/07/25 06:58:12;;;;;;;7.08;4.80;;;;;;;40.80;28.53;96474.92;128062;1093;99595;-95
2021/07/25 07:01:02;;;;;;;7.18;5.05;;;;;;;42.15;27.26;96485.83;127362;1092;291760;-96
2021/07/25 07:06:42;;;;;;;4.98;4.58;;;;;;;43.56;25.10;96480.03;126413;1088;2626353;-96
2021/07/25 07:12:28;;;;;;;8.18;4.88;;;;;;;45.90;24.34;96478.48;125282;1093;2029660;-96
2021/07/25 07:15:05;;;;;;;4.90;4.38;;;;;;;46.50;23.39;96475.05;126332;1092;318307;-96
2021/07/25 07:20:24;;;;;;;4.90;4.35;;;;;;;45.63;22.63;96477.31;127238;1093;206353;-96
2021/07/25 07:23:02;;;;;;;4.35;3.95;;;;;;;45.83;21.89;96476.21;127545;1093;114132;-96
2021/07/25 07:25:36;;;;;;;5.13;4.08;;;;;;;45.34;22.88;96472.34;127095;1091;232859;-96
2021/07/25 07:28:37;;;;;;;4.10;3.75;;;;;;;45.68;21.58;96470.94;125856;1093;1816711;-96
2021/07/25 07:31:15;;;;;;;4.70;4.08;;;;;;;45.08;22.38;96464.25;126764;1093;387161;-96
2021/07/25 07:34:00;;;;;;;3.95;3.65;;;;;;;44.36;20.38;96465.80;124944;1093;2132268;-96
2021/07/25 07:36:34;;;;;;;4.10;3.80;;;;;;;43.31;21.88;96473.32;123271;1093;2519389;-96
2021/07/25 07:39:28;;;;;;;3.78;3.48;;;;;;;44.56;21.82;96471.15;126925;1093;247986;-96
2021/07/25 07:46:00;;;;;;;4.30;3.88;;;;;;;44.98;20.89;96461.72;115471;1093;5626900;-96
2021/07/25 07:49:03;;;;;;;6.00;4.10;;;;;;;45.31;22.16;96459.35;103511;1093;5343801;-96
2021/07/25 07:51:35;;;;;;;5.25;4.75;;;;;;;46.01;19.84;96464.38;128004;1092;49083;-94
2021/07/25 07:54:07;;;;;;;5.40;4.95;;;;;;;46.55;20.59;96466.58;127744;1093;116527;-96
2021/07/25 07:56:39;;;;;;;4.45;4.00;;;;;;;48.03;20.57;96463.20;128336;1093;33744;-95
2021/07/25 07:59:10;;;;;;;5.00;4.20;;;;;;;49.08;19.37;96462.00;128081;1092;67818;-92
2021/07/25 08:01:44;;;;;;;4.40;4.00;;;;;;;48.42;18.32;96461.84;128099;1093;49621;-93
2021/07/25 08:04:15;;;;;;;3.88;3.58;;;;;;;46.89;18.65;96458.66;128055;1093;39912;-93
2021/07/25 08:06:47;;;;;;;4.18;3.78;;;;;;;45.00;17.39;96455.60;128111;1092;39622;-89
2021/07/25 08:09:18;;;;;;;4.90;4.40;;;;;;;43.27;18.65;96453.23;127971;1092;35110;-91
2021/07/25 08:11:49;;;;;;;5.38;4.80;;;;;;;42.06;20.11;96458.09;128015;1092;25255;-89
2021/07/25 08:14:21;;;;;;;4.25;3.85;;;;;;;42.01;20.44;96453.25;127901;1093;39382;-92
2021/07/25 08:16:52;;;;;;;5.88;4.55;;;;;;;42.50;21.48;96446.63;127995;1092;27026;-91
2021/07/25 08:19:24;;;;;;;5.00;4.45;;;;;;;43.34;22.42;96447.19;127891;1091;22808;-89
2021/07/25 08:21:56;;;;;;;5.58;4.35;;;;;;;45.06;21.45;96450.77;127894;1093;26269;-92
2021/07/25 08:24:27;;;;;;;5.48;4.68;;;;;;;45.33;18.42;96456.80;128136;1092;33586;-92
2021/07/25 08:26:59;;;;;;;5.63;4.55;;;;;;;43.98;19.48;96450.47;127843;1093;25987;-86
2021/07/25 08:29:31;;;;;;;5.25;4.33;;;;;;;43.57;19.48;96458.45;127953;1091;24839;-88
2021/07/25 08:32:02;;;;;;;4.65;4.20;;;;;;;43.57;18.12;96456.43;127823;1092;25339;-92
2021/07/25 08:34:34;;;;;;;7.18;4.48;;;;;;;40.26;19.32;96454.86;128094;1093;27454;-91
2021/07/25 08:37:07;;;;;;;7.73;4.48;;;;;;;38.18;20.98;96464.66;127753;1093;23453;-91
2021/07/25 08:39:39;;;;;;;4.93;4.35;;;;;;;37.53;21.89;96465.89;127920;1092;42989;-92
2021/07/25 08:42:13;;;;;;;8.25;4.68;;;;;;;37.95;21.64;96468.83;127814;1093;23286;-91
2021/07/25 08:44:51;;;;;;;5.83;4.38;;;;;;;37.29;21.52;96465.70;128066;1092;27093;-91
2021/07/25 08:47:41;;;;;;;5.55;4.30;;;;;;;36.68;21.43;96462.55;127802;1093;35539;-91
2021/07/25 08:50:24;;;;;;;5.85;4.50;;;;;;;36.06;21.92;96461.75;127703;1092;22809;-90
2021/07/25 08:52:59;;;;;;;6.13;5.07;;;;;;;34.21;23.68;96474.73;127813;1093;23889;-91
2021/07/25 08:55:31;;;;;;;7.28;5.00;;;;;;;32.37;25.70;96467.06;127988;1093;25299;-89
2021/07/25 08:58:08;;;;;;;6.00;5.03;;;;;;;31.46;27.56;96470.38;127597;1093;61837;-96
2021/07/25 09:00:40;;;;;;;6.00;4.88;;;;;;;30.84;28.18;96477.24;128330;1093;26879;-93
2021/07/25 09:03:13;;;;;;;7.78;4.98;;;;;;;30.54;29.60;96476.05;128056;1093;48185;-92
2021/07/25 09:05:48;;;;;;;6.70;5.48;;;;;;;30.47;29.65;96470.69;127978;1092;45896;-92
2021/07/25 09:08:24;;;;;;;6.73;5.15;;;;;;;30.32;29.89;96481.05;127701;1093;105097;-89
2021/07/25 09:11:02;;;;;;;10.20;5.53;;;;;;;30.22;29.57;96478.44;127964;1093;23884;-92
2021/07/25 09:13:33;;;;;;;5.55;4.60;;;;;;;30.04;30.45;96484.10;128083;1092;22789;-91
2021/07/25 09:16:05;;;;;;;6.68;4.90;;;;;;;29.92;30.80;96484.63;128115;1092;24873;-91
2021/07/25 09:18:37;;;;;;;6.63;5.08;;;;;;;29.67;31.26;96485.66;128125;1092;22951;-92
2021/07/25 09:21:08;;;;;;;6.90;5.00;;;;;;;29.32;32.35;96494.95;128076;1093;25161;-90
2021/07/25 09:23:40;;;;;;;6.38;4.78;;;;;;;28.96;32.68;96497.17;128246;1092;22931;-90
2021/07/25 09:26:13;;;;;;;6.78;5.48;;;;;;;28.91;33.08;96492.16;128628;1093;22789;-92
2021/07/25 09:28:44;;;;;;;6.28;5.40;;;;;;;28.72;34.27;96492.66;128495;1093;23220;-90
2021/07/25 09:31:17;;;;;;;7.38;5.35;;;;;;;28.52;33.51;96495.87;128452;1093;24984;-91
2021/07/25 09:33:49;;;;;;;8.13;5.00;;;;;;;28.32;33.45;96502.99;128489;1092;23439;-91
2021/07/25 09:36:23;;;;;;;7.70;4.85;;;;;;;28.06;34.09;96496.05;128377;1093;25239;-90
2021/07/25 09:38:57;;;;;;;5.95;5.10;;;;;;;28.00;34.09;96498.39;128366;1093;28162;-90
2021/07/25 09:41:30;;;;;;;7.50;5.03;;;;;;;27.95;34.28;96504.25;128074;1093;23850;-91
2021/07/25 09:44:12;;;;;;;6.78;5.33;;;;;;;27.83;34.64;96504.67;128009;1092;25335;-92
2021/07/25 09:46:51;;;;;;;7.00;4.93;;;;;;;27.64;34.85;96508.62;128124;1093;25874;-92
2021/07/25 09:49:22;;;;;;;7.48;5.25;;;;;;;27.57;35.54;96511.31;128079;1093;26219;-92
2021/07/25 09:51:54;;;;;;;6.55;5.10;;;;;;;27.37;35.29;96518.34;127925;1093;26808;-91
2021/07/25 09:54:27;;;;;;;6.20;5.23;;;;;;;27.18;35.67;96514.85;128010;1093;26753;-91
2021/07/25 09:57:12;;;;;;;8.65;6.00;;;;;;;27.14;36.09;96514.05;128043;1092;23800;-92
2021/07/25 09:59:44;;;;;;;7.78;5.55;;;;;;;27.09;36.50;96511.73;128048;1093;25605;-91
2021/07/25 10:02:33;;;;;;;6.90;5.65;;;;;;;26.95;36.76;96508.97;128077;1092;24145;-90
2021/07/25 10:05:16;;;;;;;8.20;5.70;;;;;;;26.83;37.11;96514.77;128117;1093;24536;-92
2021/07/25 10:07:49;;;;;;;7.95;5.48;;;;;;;26.78;37.42;96515.94;128109;1093;25229;-91
2021/07/25 10:10:21;;;;;;;8.68;6.00;;;;;;;26.72;37.95;96517.47;128088;1092;27881;-90
2021/07/25 10:12:53;;;;;;;8.08;5.60;;;;;;;26.77;37.78;96519.05;128103;1093;26286;-92
2021/07/25 10:15:25;;;;;;;8.07;6.00;;;;;;;26.73;38.19;96520.96;128109;1093;23223;-90
2021/07/25 10:17:58;;;;;;;7.17;5.60;;;;;;;26.59;38.72;96525.20;128132;1093;23501;-91
2021/07/25 10:20:31;;;;;;;8.75;5.93;;;;;;;26.61;38.83;96533.00;128012;1093;25695;-90
2021/07/25 10:23:03;;;;;;;6.88;6.00;;;;;;;26.55;38.80;96532.58;127877;1091;24273;-91
2021/07/25 10:25:37;;;;;;;9.23;6.40;;;;;;;26.46;38.71;96531.38;127885;1092;22850;-90
2021/07/25 10:28:09;;;;;;;9.05;6.23;;;;;;;26.37;38.97;96531.75;128118;1091;25537;-90
2021/07/25 10:30:41;;;;;;;7.87;5.80;;;;;;;26.45;39.57;96532.54;128186;1093;22854;-92
2021/07/25 10:33:19;;;;;;;9.27;5.83;;;;;;;26.50;39.47;96541.13;128313;1092;22788;-89
2021/07/25 10:35:52;;;;;;;9.20;6.10;;;;;;;26.50;38.78;96546.55;128047;1092;22854;-91
2021/07/25 10:38:23;;;;;;;8.30;5.95;;;;;;;26.39;38.84;96537.58;128064;1092;27285;-93
2021/07/25 10:40:56;;;;;;;7.40;5.95;;;;;;;26.27;39.05;96554.19;127769;1091;23677;-91
2021/07/25 10:43:28;;;;;;;7.60;5.40;;;;;;;26.10;39.46;96550.23;128055;1092;24432;-90
2021/07/25 10:46:24;;;;;;;7.23;5.80;;;;;;;26.07;39.77;96551.00;128065;1093;23804;-90
2021/07/25 10:49:17;;;;;;;7.35;5.85;;;;;;;25.98;39.67;96555.98;128189;1093;69052;-94
2021/07/25 10:52:04;;;;;;;7.93;6.05;;;;;;;25.94;39.64;96542.39;128094;1093;40476;-92
2021/07/25 10:54:49;;;;;;;7.00;5.45;;;;;;;25.77;40.42;96550.44;128143;1092;39638;-91
2021/07/25 10:57:22;;;;;;;8.23;6.50;;;;;;;25.59;40.43;96552.98;128002;1093;173695;-94
2021/07/25 10:59:56;;;;;;;9.00;5.58;;;;;;;25.55;40.11;96547.53;128292;1092;28836;-88
2021/07/25 11:02:55;;;;;;;8.33;5.63;;;;;;;25.50;40.48;96549.83;128212;1093;52559;-89
2021/07/25 11:05:27;;;;;;;7.30;5.55;;;;;;;25.44;40.64;96555.59;127975;1093;23506;-88
2021/07/25 11:08:02;;;;;;;8.57;6.60;;;;;;;25.28;40.56;96557.79;128086;1093;24556;-85
2021/07/25 11:10:36;;;;;;;6.83;5.78;;;;;;;25.32;40.51;96560.53;128083;1091;25341;-92
2021/07/25 11:13:20;;;;;;;8.23;6.05;;;;;;;25.21;40.69;96560.45;128161;1093;36767;-86
2021/07/25 11:15:52;;;;;;;7.55;5.28;;;;;;;25.23;40.98;96558.14;128086;1092;26156;-91
2021/07/25 11:18:36;;;;;;;7.88;5.48;;;;;;;25.28;40.89;96552.36;128137;1093;25643;-94
2021/07/25 11:21:12;;;;;;;7.18;5.93;;;;;;;25.35;41.13;96559.80;128246;1092;34343;-90
2021/07/25 11:23:45;;;;;;;8.08;5.48;;;;;;;25.46;41.19;96555.21;128099;1093;55326;-94
2021/07/25 11:26:38;;;;;;;7.90;5.55;;;;;;;25.54;40.58;96556.84;128085;1091;24703;-90
2021/07/25 11:29:16;;;;;;;7.30;5.30;;;;;;;25.43;40.31;96550.54;128277;1093;30118;-89
2021/07/25 11:31:50;;;;;;;6.23;4.93;;;;;;;25.15;40.50;96561.94;128087;1092;36329;-93
2021/07/25 11:34:31;;;;;;;8.10;5.30;;;;;;;25.01;40.71;96559.87;128177;1093;33325;-94
2021/07/25 11:37:08;;;;;;;7.47;5.23;;;;;;;24.86;40.82;96558.14;128361;1093;36520;-92
2021/07/25 11:39:39;;;;;;;7.95;5.23;;;;;;;24.78;41.24;96560.02;128315;1093;35820;-92
2021/07/25 11:42:11;;;;;;;7.50;5.65;;;;;;;24.71;41.34;96564.56;128447;1093;44093;-95
2021/07/25 11:44:43;;;;;;;6.63;4.53;;;;;;;24.67;41.22;96569.95;128107;1092;27394;-92
2021/07/25 11:47:15;;;;;;;6.90;5.03;;;;;;;24.63;41.21;96571.05;128273;1092;32259;-92
2021/07/25 11:49:46;;;;;;;6.07;4.17;;;;;;;24.57;41.31;96571.39;128201;1092;28287;-91
2021/07/25 11:52:18;;;;;;;6.40;4.63;;;;;;;24.53;41.40;96569.80;128033;1093;32737;-94
2021/07/25 11:54:50;;;;;;;9.30;4.73;;;;;;;24.53;41.65;96581.42;127931;1092;31357;-91
2021/07/25 11:57:27;;;;;;;6.85;4.63;;;;;;;24.56;41.78;96577.96;128106;1092;36375;-92
2021/07/25 12:00:01;;;;;;;7.08;4.80;;;;;;;24.56;41.46;96574.47;128096;1092;51756;-91
2021/07/25 12:02:36;;;;;;;5.73;4.15;;;;;;;24.49;41.48;96574.38;128016;1092;51307;-91
2021/07/25 12:05:09;;;;;;;5.80;4.68;;;;;;;24.30;41.29;96566.41;128046;1092;38998;-92
2021/07/25 12:07:44;;;;;;;8.25;4.75;;;;;;;24.21;41.75;96566.64;128126;1092;36215;-93